createdAt,value
2019-03-30T00:00:38.842Z,89.87
2019-03-30T00:01:38.818Z,89.76
2019-03-30T00:02:38.827Z,89.56
2019-03-30T00:03:38.863Z,89.50
2019-03-30T00:04:38.775Z,89.87
2019-03-30T00:05:38.767Z,89.98
2019-03-30T00:06:38.771Z,89.76
2019-03-30T00:07:38.774Z,89.45
2019-03-30T00:08:38.733Z,89.66
2019-03-30T00:09:38.716Z,89.50
2019-03-30T00:10:38.708Z,89.76
2019-03-30T00:11:38.702Z,89.56
2019-03-30T00:12:38.703Z,89.76
2019-03-30T00:13:38.669Z,89.70
2019-03-30T00:14:38.692Z,90.01
2019-03-30T00:15:38.676Z,89.95
2019-03-30T00:16:38.629Z,90.37
2019-03-30T00:17:38.650Z,90.54
2019-03-30T00:18:41.221Z,90.89
2019-03-30T00:19:38.613Z,91.10
2019-03-30T00:20:38.601Z,91.41
2019-03-30T00:21:38.586Z,91.10
2019-03-30T00:22:38.590Z,91.35
2019-03-30T00:23:38.583Z,91.62
2019-03-30T00:24:38.562Z,91.31
2019-03-30T00:25:38.548Z,90.47
2019-03-30T00:26:38.549Z,89.78
2019-03-30T00:27:38.528Z,90.31
2019-03-30T00:28:38.534Z,90.37
2019-03-30T00:29:38.501Z,91.00
2019-03-30T00:30:38.480Z,91.52
2019-03-30T00:31:38.561Z,91.56
2019-03-30T00:32:38.482Z,91.00
2019-03-30T00:33:38.443Z,91.35
2019-03-30T00:34:38.493Z,91.41
2019-03-30T00:35:38.437Z,90.68
2019-03-30T00:36:38.412Z,90.26
2019-03-30T00:37:38.399Z,91.20
2019-03-30T00:38:38.392Z,91.10
2019-03-30T00:39:38.402Z,91.56
2019-03-30T00:40:38.367Z,91.66
2019-03-30T00:41:38.359Z,91.77
2019-03-30T00:42:38.351Z,92.50
2019-03-30T00:43:38.334Z,92.18
2019-03-30T00:44:38.331Z,92.85
2019-03-30T00:45:38.349Z,92.85
2019-03-30T00:46:38.365Z,92.22
2019-03-30T00:47:38.287Z,92.44
2019-03-30T00:48:38.277Z,91.71
2019-03-30T00:49:48.419Z,92.06
2019-03-30T00:50:39.277Z,91.91
2019-03-30T00:51:38.258Z,92.16
2019-03-30T00:52:38.240Z,91.81
2019-03-30T00:53:38.272Z,91.18
2019-03-30T00:54:38.269Z,90.97
2019-03-30T00:55:38.214Z,91.18
2019-03-30T00:56:38.212Z,91.08
2019-03-30T00:57:38.177Z,90.97
2019-03-30T00:58:38.171Z,91.08
2019-03-30T00:59:38.170Z,91.29
2019-03-30T01:00:38.144Z,91.50
2019-03-30T01:01:38.150Z,91.71
2019-03-30T01:02:38.154Z,91.33
2019-03-30T01:03:38.133Z,92.02
2019-03-30T01:04:38.104Z,91.81
2019-03-30T01:05:38.103Z,91.60
2019-03-30T01:06:38.101Z,91.71
2019-03-30T01:07:38.083Z,91.91
2019-03-30T01:08:38.088Z,91.91
2019-03-30T01:09:38.057Z,92.44
2019-03-30T01:10:38.078Z,92.12
2019-03-30T01:11:38.027Z,92.90
2019-03-30T01:12:38.024Z,92.79
2019-03-30T01:13:38.003Z,92.69
2019-03-30T01:14:37.988Z,92.79
2019-03-30T01:15:37.991Z,92.90
2019-03-30T01:16:37.972Z,92.58
2019-03-30T01:17:37.996Z,92.90
2019-03-30T01:18:37.952Z,92.58
2019-03-30T01:19:37.972Z,92.37
2019-03-30T01:20:37.940Z,92.58
2019-03-30T01:21:37.918Z,92.58
2019-03-30T01:22:37.904Z,93.41
2019-03-30T01:23:37.912Z,93.41
2019-03-30T01:24:37.896Z,93.52
2019-03-30T01:25:37.884Z,93.41
2019-03-30T01:26:37.879Z,93.31
2019-03-30T01:27:37.856Z,93.10
2019-03-30T01:28:37.863Z,92.47
2019-03-30T01:29:37.857Z,91.75
2019-03-30T01:30:37.825Z,91.75
2019-03-30T01:31:37.806Z,91.47
2019-03-30T01:32:37.830Z,92.31
2019-03-30T01:33:37.802Z,92.16
2019-03-30T01:34:37.787Z,91.85
2019-03-30T01:35:37.760Z,91.58
2019-03-30T01:36:37.760Z,90.43
2019-03-30T01:37:37.759Z,90.75
2019-03-30T01:38:37.742Z,91.06
2019-03-30T01:39:37.759Z,91.27
2019-03-30T01:40:37.706Z,91.79
2019-03-30T01:41:37.722Z,92.00
2019-03-30T01:42:37.681Z,92.56
2019-03-30T01:43:37.670Z,93.46
2019-03-30T01:44:37.727Z,93.19
2019-03-30T01:45:37.666Z,93.08
2019-03-30T01:46:37.639Z,93.77
2019-03-30T01:47:37.643Z,93.92
2019-03-30T01:48:37.627Z,94.02
2019-03-30T01:49:37.617Z,94.29
2019-03-30T01:50:37.627Z,94.34
2019-03-30T01:51:37.587Z,94.34
2019-03-30T01:52:37.574Z,94.44
2019-03-30T01:53:37.581Z,94.44
2019-03-30T01:54:37.582Z,94.34
2019-03-30T01:55:37.583Z,94.50
2019-03-30T01:56:37.549Z,94.23
2019-03-30T01:57:37.526Z,93.92
2019-03-30T01:58:37.657Z,94.29
2019-03-30T01:59:37.506Z,94.29
2019-03-30T02:00:37.551Z,94.40
2019-03-30T02:01:37.476Z,94.40
2019-03-30T02:02:37.517Z,94.29
2019-03-30T02:03:37.508Z,93.40
2019-03-30T02:04:37.448Z,94.61
2019-03-30T02:05:37.499Z,94.23
2019-03-30T02:06:37.510Z,94.23
2019-03-30T02:07:37.452Z,94.34
2019-03-30T02:08:37.418Z,94.86
2019-03-30T02:09:37.387Z,94.76
2019-03-30T02:10:37.402Z,95.07
2019-03-30T02:11:37.384Z,94.96
2019-03-30T02:12:37.432Z,94.02
2019-03-30T02:13:37.348Z,93.82
2019-03-30T02:14:37.343Z,94.65
2019-03-30T02:15:37.342Z,94.76
2019-03-30T02:16:37.352Z,94.34
2019-03-30T02:17:37.328Z,94.34
2019-03-30T02:18:37.297Z,93.92
2019-03-30T02:19:37.321Z,94.55
2019-03-30T02:20:37.277Z,94.44
2019-03-30T02:21:37.312Z,94.34
2019-03-30T02:22:37.289Z,95.70
2019-03-30T02:23:37.268Z,95.49
2019-03-30T02:24:37.299Z,95.07
2019-03-30T02:25:37.247Z,95.07
2019-03-30T02:26:37.227Z,94.96
2019-03-30T02:27:37.261Z,94.76
2019-03-30T02:28:37.216Z,94.96
2019-03-30T02:29:37.182Z,95.38
2019-03-30T02:30:37.164Z,95.07
2019-03-30T02:31:37.146Z,95.28
2019-03-30T02:32:37.156Z,95.28
2019-03-30T02:33:37.126Z,95.49
2019-03-30T02:34:37.138Z,95.38
2019-03-30T02:35:37.139Z,95.70
2019-03-30T02:36:37.140Z,94.55
2019-03-30T02:37:37.092Z,94.23
2019-03-30T02:38:37.094Z,94.07
2019-03-30T02:39:37.058Z,94.38
2019-03-30T02:40:37.063Z,94.23
2019-03-30T02:41:37.044Z,94.90
2019-03-30T02:42:37.034Z,94.90
2019-03-30T02:43:37.072Z,94.90
2019-03-30T02:44:37.037Z,94.90
2019-03-30T02:45:37.017Z,94.90
2019-03-30T02:46:36.988Z,94.70
2019-03-30T02:47:36.968Z,94.70
2019-03-30T02:48:36.955Z,94.70
2019-03-30T02:49:36.969Z,94.80
2019-03-30T02:50:49.185Z,94.27
2019-03-30T02:51:37.955Z,94.38
2019-03-30T02:52:36.911Z,94.59
2019-03-30T02:53:36.910Z,94.80
2019-03-30T02:54:36.915Z,95.32
2019-03-30T02:55:36.884Z,94.90
2019-03-30T02:56:36.879Z,95.84
2019-03-30T02:57:36.857Z,94.90
2019-03-30T02:58:36.858Z,95.84
2019-03-30T02:59:36.863Z,94.59
2019-03-30T03:00:36.869Z,95.43
2019-03-30T03:01:36.817Z,95.21
2019-03-30T03:02:36.827Z,95.64
2019-03-30T03:03:36.887Z,94.70
2019-03-30T03:04:36.788Z,95.64
2019-03-30T03:05:36.806Z,94.70
2019-03-30T03:06:36.766Z,95.32
2019-03-30T03:07:36.756Z,94.95
2019-03-30T03:08:36.747Z,95.68
2019-03-30T03:09:36.727Z,95.68
2019-03-30T03:10:36.721Z,95.57
2019-03-30T03:11:36.725Z,95.47
2019-03-30T03:12:36.701Z,95.37
2019-03-30T03:13:36.690Z,95.37
2019-03-30T03:14:36.671Z,95.26
2019-03-30T03:15:36.661Z,95.37
2019-03-30T03:16:36.692Z,95.47
2019-03-30T03:17:36.710Z,95.37
2019-03-30T03:18:36.665Z,95.37
2019-03-30T03:19:36.657Z,95.37
2019-03-30T03:20:36.641Z,95.57
2019-03-30T03:21:36.602Z,95.57
2019-03-30T03:22:36.630Z,95.57
2019-03-30T03:23:36.577Z,95.26
2019-03-30T03:24:36.568Z,95.57
2019-03-30T03:25:36.574Z,95.47
2019-03-30T03:26:36.582Z,95.68
2019-03-30T03:27:36.579Z,95.15
2019-03-30T03:28:36.543Z,95.26
2019-03-30T03:29:36.516Z,95.31
2019-03-30T03:30:36.502Z,95.26
2019-03-30T03:31:36.517Z,95.15
2019-03-30T03:32:36.531Z,95.47
2019-03-30T03:33:36.592Z,95.15
2019-03-30T03:34:36.459Z,95.47
2019-03-30T03:35:36.447Z,95.47
2019-03-30T03:36:36.440Z,95.62
2019-03-30T03:37:44.542Z,95.15
2019-03-30T03:38:37.441Z,95.37
2019-03-30T03:39:36.398Z,95.15
2019-03-30T03:40:36.427Z,95.47
2019-03-30T03:41:36.408Z,95.37
2019-03-30T03:42:36.440Z,95.26
2019-03-30T03:43:36.387Z,95.26
2019-03-30T03:44:36.438Z,94.74
2019-03-30T03:45:36.396Z,94.74
2019-03-30T03:46:36.361Z,94.42
2019-03-30T03:47:36.347Z,94.64
2019-03-30T03:48:36.339Z,94.74
2019-03-30T03:49:36.294Z,94.84
2019-03-30T03:50:36.283Z,94.84
2019-03-30T03:51:36.266Z,95.05
2019-03-30T03:52:36.299Z,94.42
2019-03-30T03:53:36.239Z,94.11
2019-03-30T03:54:36.286Z,94.53
2019-03-30T03:55:36.228Z,94.64
2019-03-30T03:56:36.220Z,94.32
2019-03-30T03:57:36.276Z,94.32
2019-03-30T03:58:36.229Z,94.42
2019-03-30T03:59:36.175Z,94.42
2019-03-30T04:00:36.167Z,94.53
2019-03-30T04:01:36.159Z,94.32
2019-03-30T04:02:36.139Z,94.42
2019-03-30T04:03:36.133Z,94.21
2019-03-30T04:04:36.126Z,94.42
2019-03-30T04:05:36.143Z,94.53
2019-03-30T04:06:36.101Z,94.11
2019-03-30T04:07:36.108Z,94.42
2019-03-30T04:08:36.087Z,94.27
2019-03-30T04:09:36.112Z,94.32
2019-03-30T04:10:36.150Z,94.21
2019-03-30T04:11:36.059Z,94.21
2019-03-30T04:12:36.035Z,94.36
2019-03-30T04:13:36.043Z,94.15
2019-03-30T04:14:36.027Z,94.74
2019-03-30T04:15:36.006Z,94.95
2019-03-30T04:16:36.053Z,95.31
2019-03-30T04:17:36.020Z,95.47
2019-03-30T04:18:35.977Z,95.31
2019-03-30T04:19:35.978Z,95.15
2019-03-30T04:20:35.971Z,95.26
2019-03-30T04:21:43.669Z,95.15
2019-03-30T04:22:36.948Z,95.26
2019-03-30T04:23:35.914Z,95.57
2019-03-30T04:24:35.911Z,96.04
2019-03-30T04:25:35.903Z,95.72
2019-03-30T04:26:35.891Z,95.31
2019-03-30T04:27:35.883Z,95.51
2019-03-30T04:28:35.870Z,94.89
2019-03-30T04:29:35.855Z,96.25
2019-03-30T04:30:35.852Z,95.93
2019-03-30T04:31:35.833Z,96.14
2019-03-30T04:32:35.812Z,96.25
2019-03-30T04:33:35.818Z,96.19
2019-03-30T04:34:35.795Z,95.72
2019-03-30T04:35:35.788Z,95.51
2019-03-30T04:36:35.778Z,94.89
2019-03-30T04:37:35.756Z,95.41
2019-03-30T04:38:35.791Z,95.20
2019-03-30T04:39:35.743Z,95.20
2019-03-30T04:40:35.748Z,95.09
2019-03-30T04:41:35.724Z,95.66
2019-03-30T04:42:35.712Z,95.35
2019-03-30T04:43:35.695Z,95.31
2019-03-30T04:44:35.706Z,95.41
2019-03-30T04:45:35.682Z,95.41
2019-03-30T04:46:35.694Z,95.31
2019-03-30T04:47:35.668Z,95.41
2019-03-30T04:48:35.649Z,95.31
2019-03-30T04:49:35.645Z,95.51
2019-03-30T04:50:35.617Z,95.62
2019-03-30T04:51:35.607Z,95.62
2019-03-30T04:52:35.612Z,95.83
2019-03-30T04:53:35.580Z,95.31
2019-03-30T04:54:35.574Z,94.57
2019-03-30T04:55:35.580Z,94.89
2019-03-30T04:56:35.564Z,94.57
2019-03-30T04:57:35.540Z,94.57
2019-03-30T04:58:35.522Z,94.46
2019-03-30T04:59:35.520Z,94.46
2019-03-30T05:00:35.520Z,94.57
2019-03-30T05:01:35.505Z,93.84
2019-03-30T05:02:35.488Z,94.09
2019-03-30T05:03:35.501Z,94.51
2019-03-30T05:04:35.476Z,93.93
2019-03-30T05:05:35.498Z,94.62
2019-03-30T05:06:35.450Z,94.51
2019-03-30T05:07:35.450Z,94.30
2019-03-30T05:08:35.427Z,94.62
2019-03-30T05:09:35.410Z,94.51
2019-03-30T05:10:35.426Z,94.82
2019-03-30T05:11:35.407Z,94.51
2019-03-30T05:12:35.408Z,94.51
2019-03-30T05:13:35.361Z,94.51
2019-03-30T05:14:35.383Z,94.93
2019-03-30T05:15:35.351Z,94.72
2019-03-30T05:16:35.358Z,95.03
2019-03-30T05:17:46.725Z,94.93
2019-03-30T05:18:36.322Z,94.99
2019-03-30T05:19:35.297Z,94.57
2019-03-30T05:20:35.293Z,94.46
2019-03-30T05:21:35.299Z,94.78
2019-03-30T05:22:35.264Z,94.36
2019-03-30T05:23:35.267Z,94.68
2019-03-30T05:24:35.248Z,94.68
2019-03-30T05:25:35.246Z,94.68
2019-03-30T05:26:35.245Z,94.78
2019-03-30T05:27:35.216Z,93.95
2019-03-30T05:28:35.194Z,93.74
2019-03-30T05:29:35.194Z,94.40
2019-03-30T05:30:35.183Z,93.74
2019-03-30T05:31:35.184Z,94.78
2019-03-30T05:32:35.167Z,93.99
2019-03-30T05:33:35.141Z,94.40
2019-03-30T05:34:35.144Z,94.40
2019-03-30T05:35:35.145Z,94.51
2019-03-30T05:36:35.116Z,94.89
2019-03-30T05:37:35.115Z,95.20
2019-03-30T05:38:35.098Z,94.57
2019-03-30T05:39:35.082Z,95.72
2019-03-30T05:40:35.063Z,95.83
2019-03-30T05:41:35.055Z,95.62
2019-03-30T05:42:35.066Z,95.62
2019-03-30T05:43:35.053Z,95.51
2019-03-30T05:44:35.023Z,95.47
2019-03-30T05:45:35.029Z,95.72
2019-03-30T05:46:35.029Z,95.57
2019-03-30T05:47:34.990Z,95.47
2019-03-30T05:48:35.005Z,95.47
2019-03-30T05:49:34.970Z,95.89
2019-03-30T05:50:34.956Z,95.57
2019-03-30T05:51:34.943Z,94.90
2019-03-30T05:52:35.774Z,95.64
2019-03-30T05:53:34.943Z,95.43
2019-03-30T05:54:34.938Z,95.32
2019-03-30T05:55:34.933Z,95.84
2019-03-30T05:56:34.936Z,94.17
2019-03-30T05:57:34.889Z,94.80
2019-03-30T05:58:34.869Z,95.38
2019-03-30T05:59:34.869Z,95.38
2019-03-30T06:00:34.871Z,95.38
2019-03-30T06:01:34.845Z,95.07
2019-03-30T06:02:34.841Z,94.76
2019-03-30T06:03:34.838Z,94.92
2019-03-30T06:04:34.843Z,94.86
2019-03-30T06:05:34.835Z,94.82
2019-03-30T06:06:34.814Z,95.44
2019-03-30T06:07:34.794Z,95.23
2019-03-30T06:08:34.752Z,94.92
2019-03-30T06:09:34.817Z,95.34
2019-03-30T06:10:34.807Z,95.19
2019-03-30T06:11:34.738Z,95.09
2019-03-30T06:12:34.717Z,94.98
2019-03-30T06:13:34.723Z,95.50
2019-03-30T06:14:34.695Z,94.46
2019-03-30T06:15:34.700Z,94.88
2019-03-30T06:16:34.671Z,94.42
2019-03-30T06:17:34.704Z,94.25
2019-03-30T06:18:34.644Z,94.35
2019-03-30T06:19:34.646Z,93.79
2019-03-30T06:20:34.638Z,94.10
2019-03-30T06:21:34.609Z,94.31
2019-03-30T06:22:40.607Z,94.31
2019-03-30T06:23:35.587Z,94.37
2019-03-30T06:24:34.593Z,94.17
2019-03-30T06:25:34.636Z,93.96
2019-03-30T06:26:34.632Z,94.48
2019-03-30T06:27:34.541Z,93.12
2019-03-30T06:28:34.577Z,94.54
2019-03-30T06:29:34.558Z,93.60
2019-03-30T06:30:34.588Z,93.50
2019-03-30T06:31:34.544Z,93.71
2019-03-30T06:32:34.546Z,93.71
2019-03-30T06:33:34.556Z,93.18
2019-03-30T06:34:34.524Z,93.04
2019-03-30T06:35:34.487Z,92.93
2019-03-30T06:36:34.524Z,93.04
2019-03-30T06:37:34.448Z,92.83
2019-03-30T06:38:34.425Z,92.83
2019-03-30T06:39:37.043Z,92.99
2019-03-30T06:40:34.426Z,92.89
2019-03-30T06:41:34.427Z,92.89
2019-03-30T06:42:34.396Z,92.99
2019-03-30T06:43:34.546Z,93.31
2019-03-30T06:44:34.369Z,92.99
2019-03-30T06:45:34.363Z,93.73
2019-03-30T06:46:34.380Z,93.68
2019-03-30T06:47:34.345Z,93.48
2019-03-30T06:48:36.096Z,93.58
2019-03-30T06:49:34.305Z,93.05
2019-03-30T06:50:34.316Z,92.85
2019-03-30T06:51:34.283Z,92.74
2019-03-30T06:52:34.342Z,92.95
2019-03-30T06:53:34.273Z,93.23
2019-03-30T06:54:34.265Z,93.74
2019-03-30T06:55:34.272Z,93.43
2019-03-30T06:56:34.244Z,92.91
2019-03-30T06:57:34.231Z,92.80
2019-03-30T06:58:34.229Z,92.70
2019-03-30T06:59:34.192Z,92.76
2019-03-30T07:00:34.233Z,92.35
2019-03-30T07:01:34.199Z,92.30
2019-03-30T07:02:34.173Z,91.47
2019-03-30T07:03:34.174Z,91.68
2019-03-30T07:04:34.156Z,91.02
2019-03-30T07:05:34.126Z,91.12
2019-03-30T07:06:34.121Z,91.53
2019-03-30T07:07:34.128Z,91.33
2019-03-30T07:08:34.126Z,91.12
2019-03-30T07:09:34.085Z,90.77
2019-03-30T07:10:34.095Z,90.87
2019-03-30T07:11:34.067Z,90.87
2019-03-30T07:12:34.064Z,90.14
2019-03-30T07:13:34.090Z,90.45
2019-03-30T07:14:34.138Z,90.00
2019-03-30T07:15:34.025Z,90.10
2019-03-30T07:16:34.035Z,90.31
2019-03-30T07:17:34.018Z,90.52
2019-03-30T07:18:34.020Z,89.75
2019-03-30T07:19:33.998Z,90.06
2019-03-30T07:20:33.971Z,90.23
2019-03-30T07:21:33.963Z,90.64
2019-03-30T07:22:33.964Z,90.85
2019-03-30T07:23:33.938Z,90.75
2019-03-30T07:24:34.494Z,90.95
2019-03-30T07:25:33.927Z,90.64
2019-03-30T07:26:33.916Z,90.19
2019-03-30T07:27:33.887Z,89.67
2019-03-30T07:28:33.868Z,89.11
2019-03-30T07:29:33.865Z,89.11
2019-03-30T07:30:33.866Z,89.07
2019-03-30T07:31:33.986Z,88.13
2019-03-30T07:32:33.838Z,87.78
2019-03-30T07:33:33.822Z,87.47
2019-03-30T07:34:33.816Z,87.27
2019-03-30T07:35:33.800Z,86.71
2019-03-30T07:36:33.789Z,86.71
2019-03-30T07:37:33.804Z,86.91
2019-03-30T07:38:33.761Z,87.02
2019-03-30T07:39:33.809Z,86.81
2019-03-30T07:40:34.118Z,86.98
2019-03-30T07:41:33.771Z,85.84
2019-03-30T07:42:33.747Z,84.91
2019-03-30T07:43:33.718Z,85.63
2019-03-30T07:44:33.714Z,85.63
2019-03-30T07:45:33.706Z,85.28
2019-03-30T07:46:33.673Z,85.02
2019-03-30T07:47:33.684Z,85.39
2019-03-30T07:48:33.690Z,84.66
2019-03-30T07:49:33.640Z,84.25
2019-03-30T07:50:33.628Z,84.63
2019-03-30T07:51:33.782Z,84.00
2019-03-30T07:52:33.604Z,84.63
2019-03-30T07:53:43.782Z,84.07
2019-03-30T07:54:34.763Z,83.86
2019-03-30T07:55:33.576Z,82.73
2019-03-30T07:56:33.640Z,83.34
2019-03-30T07:57:33.546Z,82.83
2019-03-30T07:58:33.569Z,82.48
2019-03-30T07:59:33.559Z,83.31
2019-03-30T08:00:33.515Z,83.20
2019-03-30T08:01:33.524Z,82.89
2019-03-30T08:02:33.492Z,82.69
2019-03-30T08:03:33.549Z,82.55
2019-03-30T08:04:33.517Z,82.03
2019-03-30T08:05:33.467Z,81.82
2019-03-30T08:06:33.454Z,81.31
2019-03-30T08:07:33.447Z,81.72
2019-03-30T08:08:33.472Z,81.89
2019-03-30T08:09:33.480Z,80.55
2019-03-30T08:10:33.427Z,80.55
2019-03-30T08:11:33.404Z,80.65
2019-03-30T08:12:33.392Z,80.65
2019-03-30T08:13:33.385Z,80.24
2019-03-30T08:14:33.361Z,80.93
2019-03-30T08:15:33.365Z,80.82
2019-03-30T08:16:33.342Z,80.51
2019-03-30T08:17:33.324Z,79.65
2019-03-30T08:18:33.342Z,79.14
2019-03-30T08:19:33.325Z,79.34
2019-03-30T08:20:33.335Z,78.72
2019-03-30T08:21:33.285Z,78.93
2019-03-30T08:22:33.312Z,79.00
2019-03-30T08:23:40.251Z,78.79
2019-03-30T08:24:34.293Z,79.37
2019-03-30T08:25:33.233Z,79.37
2019-03-30T08:26:35.658Z,78.96
2019-03-30T08:27:33.222Z,78.51
2019-03-30T08:28:33.200Z,78.61
2019-03-30T08:29:33.193Z,78.61
2019-03-30T08:30:33.189Z,78.72
2019-03-30T08:31:33.187Z,78.82
2019-03-30T08:32:33.159Z,78.51
2019-03-30T08:33:33.152Z,78.06
2019-03-30T08:34:33.132Z,78.13
2019-03-30T08:35:33.138Z,77.86
2019-03-30T08:36:33.119Z,77.31
2019-03-30T08:37:33.129Z,76.79
2019-03-30T08:38:33.130Z,76.28
2019-03-30T08:39:33.092Z,76.90
2019-03-30T08:40:33.072Z,76.76
2019-03-30T08:41:33.138Z,76.35
2019-03-30T08:42:33.084Z,76.55
2019-03-30T08:43:33.033Z,77.17
2019-03-30T08:44:33.065Z,75.80
2019-03-30T08:45:33.031Z,76.00
2019-03-30T08:46:33.004Z,76.42
2019-03-30T08:47:33.072Z,75.56
2019-03-30T08:48:33.036Z,75.56
2019-03-30T08:49:32.974Z,74.84
2019-03-30T08:50:32.980Z,74.43
2019-03-30T08:51:32.979Z,75.15
2019-03-30T08:52:32.945Z,73.50
2019-03-30T08:53:32.996Z,74.22
2019-03-30T08:54:32.945Z,73.36
2019-03-30T08:55:32.946Z,73.88
2019-03-30T08:56:32.931Z,73.74
2019-03-30T08:57:32.892Z,73.02
2019-03-30T08:58:32.905Z,72.58
2019-03-30T08:59:32.873Z,72.61
2019-03-30T09:00:33.579Z,72.92
2019-03-30T09:01:32.892Z,72.00
2019-03-30T09:02:32.865Z,72.51
2019-03-30T09:03:34.078Z,73.13
2019-03-30T09:04:32.825Z,72.89
2019-03-30T09:05:32.826Z,72.34
2019-03-30T09:06:32.785Z,72.52
2019-03-30T09:07:32.793Z,71.32
2019-03-30T09:08:32.770Z,71.42
2019-03-30T09:09:32.788Z,70.98
2019-03-30T09:10:32.758Z,71.90
2019-03-30T09:11:32.750Z,70.98
2019-03-30T09:12:32.774Z,69.31
2019-03-30T09:13:32.739Z,70.33
2019-03-30T09:14:32.728Z,70.03
2019-03-30T09:15:32.697Z,70.53
2019-03-30T09:16:32.692Z,70.94
2019-03-30T09:17:32.720Z,70.03
2019-03-30T09:18:32.705Z,70.77
2019-03-30T09:19:32.654Z,71.15
2019-03-30T09:20:32.641Z,71.66
2019-03-30T09:21:32.631Z,71.77
2019-03-30T09:22:32.613Z,71.42
2019-03-30T09:23:32.647Z,71.73
2019-03-30T09:24:32.592Z,70.61
2019-03-30T09:25:32.579Z,69.85
2019-03-30T09:26:32.573Z,69.68
2019-03-30T09:27:32.595Z,69.38
2019-03-30T09:28:32.547Z,69.07
2019-03-30T09:29:32.547Z,68.42
2019-03-30T09:30:32.610Z,68.22
2019-03-30T09:31:32.518Z,67.88
2019-03-30T09:32:32.516Z,68.39
2019-03-30T09:33:32.494Z,68.08
2019-03-30T09:34:32.491Z,66.86
2019-03-30T09:35:32.483Z,67.27
2019-03-30T09:36:32.586Z,68.08
2019-03-30T09:37:32.457Z,66.72
2019-03-30T09:38:32.440Z,66.62
2019-03-30T09:39:32.454Z,66.83
2019-03-30T09:40:32.412Z,65.91
2019-03-30T09:41:32.417Z,65.91
2019-03-30T09:42:32.385Z,66.18
2019-03-30T09:43:32.387Z,67.51
2019-03-30T09:44:32.394Z,68.33
2019-03-30T09:45:32.394Z,67.41
2019-03-30T09:46:32.351Z,67.07
2019-03-30T09:47:32.344Z,66.46
2019-03-30T09:48:32.358Z,67.38
2019-03-30T09:49:32.314Z,65.92
2019-03-30T09:50:32.316Z,66.42
2019-03-30T09:51:32.282Z,65.84
2019-03-30T09:52:32.285Z,65.92
2019-03-30T09:53:32.296Z,65.71
2019-03-30T09:54:32.258Z,65.10
2019-03-30T09:55:32.255Z,64.90
2019-03-30T09:56:32.268Z,64.69
2019-03-30T09:57:32.235Z,64.08
2019-03-30T09:58:32.224Z,63.75
2019-03-30T09:59:32.237Z,63.64
2019-03-30T10:00:32.188Z,63.85
2019-03-30T10:01:32.188Z,63.95
2019-03-30T10:02:32.180Z,64.25
2019-03-30T10:03:32.155Z,61.37
2019-03-30T10:04:32.159Z,61.37
2019-03-30T10:05:32.162Z,61.47
2019-03-30T10:06:34.555Z,62.49
2019-03-30T10:07:32.120Z,62.49
2019-03-30T10:08:32.139Z,61.98
2019-03-30T10:09:32.091Z,61.27
2019-03-30T10:10:32.087Z,61.37
2019-03-30T10:11:32.071Z,61.34
2019-03-30T10:12:32.060Z,60.73
2019-03-30T10:13:32.050Z,60.63
2019-03-30T10:14:32.039Z,60.22
2019-03-30T10:15:32.015Z,59.99
2019-03-30T10:16:32.011Z,59.58
2019-03-30T10:17:32.000Z,59.51
2019-03-30T10:18:31.994Z,60.60
2019-03-30T10:19:31.996Z,60.30
2019-03-30T10:20:31.997Z,60.09
2019-03-30T10:21:32.001Z,61.41
2019-03-30T10:22:31.965Z,60.50
2019-03-30T10:23:31.941Z,59.86
2019-03-30T10:24:38.058Z,59.66
2019-03-30T10:25:32.973Z,59.07
2019-03-30T10:26:31.969Z,59.96
2019-03-30T10:27:31.894Z,57.39
2019-03-30T10:28:31.891Z,57.79
2019-03-30T10:29:31.992Z,58.61
2019-03-30T10:30:31.861Z,57.90
2019-03-30T10:31:31.839Z,58.61
2019-03-30T10:32:31.831Z,57.90
2019-03-30T10:33:31.858Z,57.08
2019-03-30T10:34:31.821Z,54.74
2019-03-30T10:35:31.797Z,54.03
2019-03-30T10:36:31.793Z,54.85
2019-03-30T10:37:31.763Z,54.74
2019-03-30T10:38:31.791Z,54.94
2019-03-30T10:39:31.766Z,54.72
2019-03-30T10:40:31.748Z,55.22
2019-03-30T10:41:31.712Z,53.09
2019-03-30T10:42:31.713Z,53.19
2019-03-30T10:43:31.738Z,52.86
2019-03-30T10:44:31.692Z,53.17
2019-03-30T10:45:31.720Z,52.86
2019-03-30T10:46:31.668Z,53.37
2019-03-30T10:47:31.646Z,53.78
2019-03-30T10:48:31.656Z,53.04
2019-03-30T10:49:31.671Z,51.51
2019-03-30T10:50:31.614Z,49.89
2019-03-30T10:51:31.623Z,51.21
2019-03-30T10:52:31.600Z,49.18
2019-03-30T10:53:31.587Z,48.97
2019-03-30T10:54:31.603Z,47.45
2019-03-30T10:55:31.580Z,47.55
2019-03-30T10:56:31.602Z,47.55
2019-03-30T10:57:31.557Z,48.36
2019-03-30T10:58:31.536Z,46.44
2019-03-30T10:59:31.525Z,47.75
2019-03-30T11:00:31.511Z,48.16
2019-03-30T11:01:31.526Z,49.18
2019-03-30T11:02:31.491Z,49.00
2019-03-30T11:03:31.556Z,49.69
2019-03-30T11:04:31.592Z,48.87
2019-03-30T11:05:31.457Z,49.89
2019-03-30T11:06:31.456Z,48.95
2019-03-30T11:07:31.450Z,48.14
2019-03-30T11:08:31.432Z,48.44
2019-03-30T11:09:31.439Z,49.26
2019-03-30T11:10:31.440Z,47.94
2019-03-30T11:11:31.381Z,47.33
2019-03-30T11:12:31.365Z,47.22
2019-03-30T11:13:31.365Z,48.24
2019-03-30T11:14:31.348Z,47.02
2019-03-30T11:15:34.112Z,48.04
2019-03-30T11:16:31.323Z,48.11
2019-03-30T11:17:31.334Z,49.16
2019-03-30T11:18:31.320Z,48.83
2019-03-30T11:19:31.336Z,47.94
2019-03-30T11:20:31.286Z,48.22
2019-03-30T11:21:31.277Z,48.95
2019-03-30T11:22:31.267Z,48.75
2019-03-30T11:23:31.264Z,47.61
2019-03-30T11:24:31.233Z,49.64
2019-03-30T11:25:31.233Z,49.03
2019-03-30T11:26:31.259Z,47.91
2019-03-30T11:27:31.223Z,48.63
2019-03-30T11:28:31.258Z,48.83
2019-03-30T11:29:31.199Z,48.11
2019-03-30T11:30:31.177Z,48.93
2019-03-30T11:31:31.187Z,48.10
2019-03-30T11:32:31.164Z,49.82
2019-03-30T11:33:31.157Z,49.84
2019-03-30T11:34:31.150Z,48.71
2019-03-30T11:35:31.111Z,48.80
2019-03-30T11:36:31.265Z,48.60
2019-03-30T11:37:31.112Z,50.12
2019-03-30T11:38:31.096Z,47.49
2019-03-30T11:39:31.094Z,48.18
2019-03-30T11:40:31.079Z,46.86
2019-03-30T11:41:31.041Z,47.06
2019-03-30T11:42:31.089Z,47.03
2019-03-30T11:43:31.140Z,47.54
2019-03-30T11:44:31.024Z,47.85
2019-03-30T11:45:31.030Z,47.44
2019-03-30T11:46:31.010Z,46.94
2019-03-30T11:47:30.975Z,47.26
2019-03-30T11:48:31.033Z,47.46
2019-03-30T11:49:31.213Z,47.87
2019-03-30T11:50:30.944Z,47.24
2019-03-30T11:51:30.990Z,46.02
2019-03-30T11:52:30.929Z,46.12
2019-03-30T11:53:30.916Z,44.70
2019-03-30T11:54:30.946Z,46.33
2019-03-30T11:55:30.932Z,45.72
2019-03-30T11:56:30.877Z,46.94
2019-03-30T11:57:30.871Z,46.33
2019-03-30T11:58:31.000Z,45.62
2019-03-30T11:59:30.848Z,47.34
2019-03-30T12:00:30.876Z,47.03
2019-03-30T12:01:30.822Z,46.53
2019-03-30T12:02:30.835Z,47.34
2019-03-30T12:03:30.800Z,47.24
2019-03-30T12:04:30.801Z,45.42
2019-03-30T12:05:30.777Z,45.29
2019-03-30T12:06:30.786Z,43.85
2019-03-30T12:07:30.781Z,44.56
2019-03-30T12:08:30.746Z,44.96
2019-03-30T12:09:30.725Z,43.35
2019-03-30T12:10:30.722Z,45.57
2019-03-30T12:11:30.743Z,44.76
2019-03-30T12:12:30.693Z,46.38
2019-03-30T12:13:30.686Z,45.55
2019-03-30T12:14:30.700Z,45.37
2019-03-30T12:15:30.666Z,43.32
2019-03-30T12:16:30.670Z,43.12
2019-03-30T12:17:31.531Z,45.55
2019-03-30T12:18:30.641Z,44.95
2019-03-30T12:19:30.627Z,44.56
2019-03-30T12:20:30.641Z,45.98
2019-03-30T12:21:30.602Z,46.91
2019-03-30T12:22:30.582Z,46.41
2019-03-30T12:23:30.598Z,47.42
2019-03-30T12:24:30.568Z,47.39
2019-03-30T12:25:36.024Z,47.60
2019-03-30T12:26:31.545Z,47.19
2019-03-30T12:27:30.533Z,48.11
2019-03-30T12:28:30.537Z,47.50
2019-03-30T12:29:30.716Z,47.50
2019-03-30T12:30:30.498Z,47.27
2019-03-30T12:31:30.492Z,47.30
2019-03-30T12:32:30.483Z,47.60
2019-03-30T12:33:30.467Z,47.70
2019-03-30T12:34:30.482Z,48.61
2019-03-30T12:35:30.446Z,49.02
2019-03-30T12:36:30.457Z,47.47
2019-03-30T12:37:30.453Z,47.60
2019-03-30T12:38:30.408Z,47.39
2019-03-30T12:39:30.400Z,46.48
2019-03-30T12:40:30.410Z,47.09
2019-03-30T12:41:30.400Z,47.19
2019-03-30T12:42:30.374Z,47.19
2019-03-30T12:43:30.359Z,46.77
2019-03-30T12:44:30.345Z,46.97
2019-03-30T12:45:30.371Z,47.07
2019-03-30T12:46:30.360Z,47.17
2019-03-30T12:47:31.036Z,47.47
2019-03-30T12:48:30.294Z,47.55
2019-03-30T12:49:30.296Z,47.07
2019-03-30T12:50:30.276Z,47.15
2019-03-30T12:51:30.300Z,48.06
2019-03-30T12:52:30.273Z,46.95